Time;durP1;ratioP1;P1;durP2;ratioP2;P2;SDS_P1;SDS_P2;PMS_P1;PMS_P2;Temp;Humidity;BMP_temperature;BMP_pressure;BME280_temperature;BME280_humidity;BME280_pressure;Samples;Min_cycle;Max_cycle;Signal;HPM_P1;HPM_P2
2022/03/06 00:00:37;;;;;;;17.23;12.50;;;;;;;;;;4986879;28;20194;-61
2022/03/06 00:03:04;;;;;;;17.83;12.23;;;;;;;;;;4982968;28;20200;-61
2022/03/06 00:05:30;;;;;;;15.83;12.70;;;;;;;;;;4972772;28;20352;-62
2022/03/06 00:07:59;;;;;;;17.87;13.33;;;;;;;;;;4976560;28;20196;-61
2022/03/06 00:10:24;;;;;;;18.07;13.47;;;;;;;;;;4973653;28;20334;-61
2022/03/06 00:12:50;;;;;;;17.80;11.90;;;;;;;;;;4975418;28;20235;-62
2022/03/06 00:15:16;;;;;;;18.37;12.93;;;;;;;;;;4973146;28;20692;-61
2022/03/06 00:17:42;;;;;;;16.70;12.70;;;;;;;;;;4979553;28;20203;-61
2022/03/06 00:20:09;;;;;;;18.23;12.63;;;;;;;;;;4978006;28;20197;-62
2022/03/06 00:22:35;;;;;;;16.90;12.53;;;;;;;;;;4988727;28;21322;-61
2022/03/06 00:25:02;;;;;;;15.33;12.20;;;;;;;;;;4989265;28;20244;-62
2022/03/06 00:27:28;;;;;;;20.23;12.57;;;;;;;;;;4987886;28;20683;-62
2022/03/06 00:29:54;;;;;;;16.50;13.03;;;;;;;;;;4980017;28;20197;-61
2022/03/06 00:32:20;;;;;;;19.50;13.13;;;;;;;;;;4985148;28;20204;-61
2022/03/06 00:34:48;;;;;;;16.23;12.57;;;;;;;;;;4981474;28;20196;-61
2022/03/06 00:37:14;;;;;;;18.60;13.47;;;;;;;;;;4986296;28;20201;-61
2022/03/06 00:39:40;;;;;;;17.23;13.00;;;;;;;;;;4993670;28;20462;-62
2022/03/06 00:42:07;;;;;;;17.30;12.67;;;;;;;;;;4990489;28;20197;-62
2022/03/06 00:44:33;;;;;;;18.37;13.00;;;;;;;;;;4990150;28;20285;-61
2022/03/06 00:46:58;;;;;;;17.43;11.97;;;;;;;;;;4990044;28;20225;-61
2022/03/06 00:49:24;;;;;;;18.93;12.87;;;;;;;;;;4989277;28;20201;-62
2022/03/06 00:51:50;;;;;;;18.00;12.23;;;;;;;;;;4992900;28;20201;-61
2022/03/06 00:54:16;;;;;;;17.47;11.97;;;;;;;;;;4993140;28;20205;-62
2022/03/06 00:56:42;;;;;;;17.77;11.87;;;;;;;;;;4988991;28;20197;-62
2022/03/06 00:59:08;;;;;;;18.10;12.30;;;;;;;;;;4992779;28;20266;-62
2022/03/06 01:01:34;;;;;;;18.07;12.70;;;;;;;;;;4993232;28;20204;-61
2022/03/06 01:04:00;;;;;;;18.23;12.43;;;;;;;;;;4993616;28;20201;-61
2022/03/06 01:06:26;;;;;;;17.10;11.47;;;;;;;;;;4994975;28;20209;-62
2022/03/06 01:08:52;;;;;;;14.97;11.37;;;;;;;;;;4994577;28;20203;-61
2022/03/06 01:11:20;;;;;;;17.60;12.90;;;;;;;;;;4994473;28;20427;-61
2022/03/06 01:13:46;;;;;;;16.77;12.03;;;;;;;;;;4988149;28;20220;-62
2022/03/06 01:16:12;;;;;;;16.93;11.77;;;;;;;;;;4989328;28;20201;-61
2022/03/06 01:18:38;;;;;;;20.03;13.23;;;;;;;;;;4989736;28;20276;-61
2022/03/06 01:21:04;;;;;;;17.47;12.43;;;;;;;;;;4989758;28;20192;-61
2022/03/06 01:23:30;;;;;;;17.30;12.20;;;;;;;;;;4997433;28;20810;-61
2022/03/06 01:25:56;;;;;;;19.40;12.50;;;;;;;;;;4997931;28;20335;-62
2022/03/06 01:28:23;;;;;;;18.47;11.97;;;;;;;;;;4989690;28;20454;-61
2022/03/06 01:30:49;;;;;;;20.10;11.67;;;;;;;;;;4994606;28;20193;-61
2022/03/06 01:33:14;;;;;;;17.77;12.40;;;;;;;;;;4995762;28;20189;-61
2022/03/06 01:35:40;;;;;;;16.73;12.07;;;;;;;;;;4993915;28;20200;-62
2022/03/06 01:38:06;;;;;;;18.13;11.80;;;;;;;;;;4987127;28;20251;-62
2022/03/06 01:40:32;;;;;;;15.83;12.00;;;;;;;;;;4988478;28;20296;-61
2022/03/06 01:42:58;;;;;;;17.43;12.67;;;;;;;;;;4981775;28;20200;-62
2022/03/06 01:45:24;;;;;;;17.50;12.57;;;;;;;;;;4988055;28;20213;-62
2022/03/06 01:47:51;;;;;;;18.63;12.13;;;;;;;;;;4978841;28;20311;-62
2022/03/06 01:50:27;;;;;;;16.57;11.93;;;;;;;;;;4982721;28;20755;-61
2022/03/06 01:52:53;;;;;;;17.47;12.30;;;;;;;;;;4972461;28;20203;-61
2022/03/06 01:55:20;;;;;;;15.80;12.07;;;;;;;;;;4979020;28;20227;-62
2022/03/06 01:57:46;;;;;;;18.93;12.40;;;;;;;;;;4979288;28;20707;-61
2022/03/06 02:00:16;;;;;;;20.23;12.53;;;;;;;;;;4978949;28;20562;-61
2022/03/06 02:02:42;;;;;;;16.80;13.03;;;;;;;;;;4973674;28;20205;-61
2022/03/06 02:05:08;;;;;;;17.90;12.97;;;;;;;;;;4976139;28;20336;-61
2022/03/06 02:07:34;;;;;;;17.70;12.80;;;;;;;;;;4975023;28;20307;-61
2022/03/06 02:10:00;;;;;;;16.47;12.17;;;;;;;;;;4975533;28;20197;-61
2022/03/06 02:12:27;;;;;;;17.23;12.40;;;;;;;;;;4980550;28;20288;-61
2022/03/06 02:15:00;;;;;;;20.50;13.83;;;;;;;;;;4979379;28;20197;-62
2022/03/06 02:17:26;;;;;;;18.20;12.93;;;;;;;;;;4975530;28;20656;-62
2022/03/06 02:19:52;;;;;;;17.90;11.97;;;;;;;;;;4978494;28;20240;-61
2022/03/06 02:22:22;;;;;;;18.33;12.53;;;;;;;;;;4981220;28;20201;-61
2022/03/06 02:24:48;;;;;;;17.37;12.67;;;;;;;;;;4979635;28;20395;-61
2022/03/06 02:27:14;;;;;;;17.47;12.33;;;;;;;;;;4989325;28;20265;-62
2022/03/06 02:29:40;;;;;;;16.97;12.30;;;;;;;;;;4983379;28;20279;-62
2022/03/06 02:32:07;;;;;;;22.37;12.57;;;;;;;;;;4976538;28;20193;-61
2022/03/06 02:34:33;;;;;;;17.23;12.30;;;;;;;;;;4977265;28;20205;-61
2022/03/06 02:37:02;;;;;;;18.23;12.13;;;;;;;;;;4980740;28;20200;-61
2022/03/06 02:39:28;;;;;;;19.57;12.50;;;;;;;;;;4981680;28;20662;-61
2022/03/06 02:41:54;;;;;;;19.03;11.67;;;;;;;;;;4988078;28;20197;-61
2022/03/06 02:44:21;;;;;;;18.07;12.53;;;;;;;;;;4983838;28;20199;-61
2022/03/06 02:46:46;;;;;;;18.60;12.63;;;;;;;;;;4986921;28;20649;-61
2022/03/06 02:49:15;;;;;;;17.97;12.47;;;;;;;;;;4993211;28;20204;-61
2022/03/06 02:51:41;;;;;;;16.67;11.70;;;;;;;;;;4993846;28;20637;-61
2022/03/06 02:54:07;;;;;;;16.83;12.23;;;;;;;;;;4990772;28;20204;-61
2022/03/06 02:56:34;;;;;;;17.47;11.93;;;;;;;;;;4980034;28;23410;-61
2022/03/06 02:59:00;;;;;;;20.70;12.63;;;;;;;;;;4993977;28;20197;-61
2022/03/06 03:01:26;;;;;;;17.83;11.93;;;;;;;;;;4985077;28;20611;-61
2022/03/06 03:03:52;;;;;;;18.67;12.77;;;;;;;;;;4974609;28;20386;-61
2022/03/06 03:06:18;;;;;;;16.90;12.27;;;;;;;;;;4984392;28;20208;-61
2022/03/06 03:08:46;;;;;;;17.87;12.33;;;;;;;;;;4973958;28;20259;-61
2022/03/06 03:11:12;;;;;;;16.93;12.17;;;;;;;;;;4986259;28;20196;-61
2022/03/06 03:13:38;;;;;;;16.00;12.03;;;;;;;;;;4974386;28;20271;-61
2022/03/06 03:16:04;;;;;;;16.17;11.50;;;;;;;;;;4967819;28;20196;-62
2022/03/06 03:18:30;;;;;;;17.63;11.83;;;;;;;;;;4965047;28;20285;-61
2022/03/06 03:20:56;;;;;;;16.20;11.90;;;;;;;;;;4970127;28;20211;-62
2022/03/06 03:23:22;;;;;;;16.67;11.93;;;;;;;;;;4971512;28;21515;-61
2022/03/06 03:25:48;;;;;;;16.77;12.63;;;;;;;;;;4960831;28;21269;-62
2022/03/06 03:28:14;;;;;;;18.07;12.10;;;;;;;;;;4968765;28;20284;-61
2022/03/06 03:30:40;;;;;;;16.90;11.60;;;;;;;;;;4975572;28;23837;-61
2022/03/06 03:33:06;;;;;;;17.57;12.10;;;;;;;;;;4969100;28;21030;-61
2022/03/06 03:35:32;;;;;;;18.53;12.10;;;;;;;;;;4958327;28;20205;-61
2022/03/06 03:37:57;;;;;;;17.73;12.70;;;;;;;;;;4960010;28;20197;-61
2022/03/06 03:40:24;;;;;;;16.97;12.40;;;;;;;;;;4960357;28;20196;-61
2022/03/06 03:42:49;;;;;;;17.60;11.90;;;;;;;;;;4961166;28;20958;-61
2022/03/06 03:45:15;;;;;;;19.80;12.83;;;;;;;;;;4967571;28;20580;-61
2022/03/06 03:47:41;;;;;;;17.97;12.57;;;;;;;;;;4958792;28;20204;-61
2022/03/06 03:50:08;;;;;;;17.43;12.53;;;;;;;;;;4966626;28;20253;-61
2022/03/06 03:52:33;;;;;;;17.63;12.57;;;;;;;;;;4968114;28;20215;-61
2022/03/06 03:54:59;;;;;;;17.60;11.60;;;;;;;;;;4986048;28;20582;-61
2022/03/06 03:57:25;;;;;;;19.70;12.80;;;;;;;;;;4954840;28;21773;-61
2022/03/06 03:59:51;;;;;;;17.87;12.20;;;;;;;;;;4966930;28;20646;-61
2022/03/06 04:02:17;;;;;;;17.17;11.87;;;;;;;;;;4962338;28;20199;-61
2022/03/06 04:04:43;;;;;;;17.27;11.53;;;;;;;;;;4959956;28;20213;-61
2022/03/06 04:07:09;;;;;;;15.57;11.70;;;;;;;;;;4967679;28;20225;-62
2022/03/06 04:09:36;;;;;;;17.43;12.23;;;;;;;;;;4961783;28;20656;-61
2022/03/06 04:12:01;;;;;;;18.20;12.30;;;;;;;;;;4961276;28;20208;-61
2022/03/06 04:14:27;;;;;;;17.30;12.20;;;;;;;;;;4969133;28;21420;-61
2022/03/06 04:16:53;;;;;;;17.00;13.07;;;;;;;;;;4974171;28;20214;-62
2022/03/06 04:19:19;;;;;;;18.43;12.43;;;;;;;;;;4982739;28;20200;-61
2022/03/06 04:21:45;;;;;;;18.53;11.90;;;;;;;;;;4972776;28;20331;-61
2022/03/06 04:24:11;;;;;;;19.90;13.03;;;;;;;;;;4973281;28;20304;-61
2022/03/06 04:26:38;;;;;;;20.00;12.40;;;;;;;;;;4975800;28;20761;-61
2022/03/06 04:29:04;;;;;;;17.00;12.47;;;;;;;;;;4975079;28;20211;-61
2022/03/06 04:31:30;;;;;;;20.50;12.60;;;;;;;;;;4981717;28;20231;-61
2022/03/06 04:33:56;;;;;;;19.63;12.33;;;;;;;;;;4979046;28;20207;-61
2022/03/06 04:36:22;;;;;;;17.10;12.57;;;;;;;;;;4970432;28;20257;-61
2022/03/06 04:38:48;;;;;;;18.57;13.37;;;;;;;;;;4977606;28;20204;-61
2022/03/06 04:41:15;;;;;;;18.07;12.27;;;;;;;;;;4981154;28;21224;-61
2022/03/06 04:43:41;;;;;;;19.33;13.23;;;;;;;;;;4979489;28;20191;-61
2022/03/06 04:46:07;;;;;;;18.57;13.13;;;;;;;;;;4975196;28;20254;-62
2022/03/06 04:48:33;;;;;;;17.63;12.87;;;;;;;;;;4977036;28;20291;-62
2022/03/06 04:50:59;;;;;;;18.37;12.77;;;;;;;;;;4985886;28;20208;-61
2022/03/06 04:53:25;;;;;;;16.13;12.30;;;;;;;;;;4986055;28;20215;-62
2022/03/06 04:55:51;;;;;;;20.53;12.97;;;;;;;;;;4974194;28;20200;-61
2022/03/06 04:58:17;;;;;;;17.17;12.37;;;;;;;;;;4976831;28;20192;-61
2022/03/06 05:00:43;;;;;;;17.27;12.47;;;;;;;;;;4982228;28;20204;-61
2022/03/06 05:03:09;;;;;;;19.50;13.43;;;;;;;;;;4987130;28;20205;-62
2022/03/06 05:05:35;;;;;;;18.30;12.83;;;;;;;;;;4982911;28;20221;-61
2022/03/06 05:08:01;;;;;;;19.83;13.07;;;;;;;;;;4984690;28;20200;-62
2022/03/06 05:10:27;;;;;;;18.17;12.53;;;;;;;;;;4980911;28;20251;-61
2022/03/06 05:12:53;;;;;;;16.27;11.93;;;;;;;;;;4982435;28;20195;-61
2022/03/06 05:15:19;;;;;;;19.47;13.67;;;;;;;;;;4979920;28;20208;-61
2022/03/06 05:17:45;;;;;;;16.40;11.77;;;;;;;;;;4980466;28;20200;-61
2022/03/06 05:20:11;;;;;;;16.43;12.57;;;;;;;;;;4981960;28;20193;-62
2022/03/06 05:22:37;;;;;;;17.60;12.63;;;;;;;;;;4981752;28;21541;-61
2022/03/06 05:25:04;;;;;;;18.83;12.93;;;;;;;;;;4986489;28;20235;-61
2022/03/06 05:27:30;;;;;;;18.13;13.27;;;;;;;;;;4978516;28;20224;-61
2022/03/06 05:29:56;;;;;;;18.37;12.00;;;;;;;;;;4976210;28;20672;-61
2022/03/06 05:32:22;;;;;;;16.93;12.77;;;;;;;;;;4979284;28;20200;-61
2022/03/06 05:34:48;;;;;;;17.57;12.83;;;;;;;;;;4980238;28;20466;-62
2022/03/06 05:37:14;;;;;;;18.33;12.60;;;;;;;;;;4980056;28;20219;-61
2022/03/06 05:39:40;;;;;;;19.43;13.37;;;;;;;;;;4979400;28;20591;-61
2022/03/06 05:42:06;;;;;;;21.00;13.43;;;;;;;;;;4982948;28;20280;-61
2022/03/06 05:44:32;;;;;;;17.87;12.40;;;;;;;;;;4980665;28;20393;-61
2022/03/06 05:46:58;;;;;;;16.63;12.50;;;;;;;;;;4980225;28;20221;-62
2022/03/06 05:49:24;;;;;;;18.93;13.00;;;;;;;;;;4980768;28;20239;-61
2022/03/06 05:51:50;;;;;;;18.50;13.20;;;;;;;;;;4985460;28;20273;-61
2022/03/06 05:54:16;;;;;;;19.60;13.17;;;;;;;;;;4984216;28;20339;-61
2022/03/06 05:56:42;;;;;;;17.13;12.30;;;;;;;;;;4971462;28;20725;-61
2022/03/06 05:59:08;;;;;;;17.57;12.83;;;;;;;;;;4983886;28;20258;-62
2022/03/06 06:01:34;;;;;;;17.87;11.97;;;;;;;;;;4981287;28;20196;-61
2022/03/06 06:04:00;;;;;;;16.33;12.33;;;;;;;;;;4973135;28;20675;-62
2022/03/06 06:06:26;;;;;;;19.37;13.17;;;;;;;;;;4990722;28;20646;-62
2022/03/06 06:08:52;;;;;;;17.17;12.47;;;;;;;;;;4984657;28;20208;-62
2022/03/06 06:11:18;;;;;;;18.73;13.27;;;;;;;;;;4981321;28;20658;-61
2022/03/06 06:13:44;;;;;;;17.77;13.30;;;;;;;;;;4982745;28;20201;-62
2022/03/06 06:16:10;;;;;;;16.53;12.47;;;;;;;;;;4978346;28;20195;-61
2022/03/06 06:18:36;;;;;;;17.23;11.97;;;;;;;;;;4984157;28;20254;-61
2022/03/06 06:21:02;;;;;;;17.50;12.13;;;;;;;;;;4986536;28;20204;-61
2022/03/06 06:23:28;;;;;;;19.67;12.80;;;;;;;;;;4980398;28;20204;-62
2022/03/06 06:25:54;;;;;;;20.97;13.87;;;;;;;;;;4982304;28;20698;-61
2022/03/06 06:28:20;;;;;;;19.20;13.17;;;;;;;;;;4981781;28;20658;-61
2022/03/06 06:30:46;;;;;;;19.10;13.60;;;;;;;;;;4972654;28;20198;-61
2022/03/06 06:33:12;;;;;;;20.33;13.80;;;;;;;;;;4967272;28;20323;-62
2022/03/06 06:35:38;;;;;;;18.87;13.80;;;;;;;;;;4978890;28;20633;-61
2022/03/06 06:38:04;;;;;;;17.70;13.77;;;;;;;;;;4981792;28;20651;-61
2022/03/06 06:40:30;;;;;;;19.13;13.80;;;;;;;;;;4988117;28;20308;-61
2022/03/06 06:42:56;;;;;;;20.87;14.23;;;;;;;;;;4985760;28;20198;-61
2022/03/06 06:45:22;;;;;;;21.30;14.67;;;;;;;;;;4983462;28;20782;-61
2022/03/06 06:47:48;;;;;;;22.93;15.07;;;;;;;;;;4995021;28;20219;-61
2022/03/06 06:50:14;;;;;;;23.17;15.20;;;;;;;;;;4992461;28;20801;-61
2022/03/06 06:52:40;;;;;;;23.50;15.97;;;;;;;;;;4987572;28;20204;-61
2022/03/06 06:55:06;;;;;;;22.90;16.07;;;;;;;;;;4979350;28;20243;-61
2022/03/06 06:57:32;;;;;;;23.83;15.77;;;;;;;;;;4981212;28;20278;-62
2022/03/06 06:59:58;;;;;;;24.60;16.57;;;;;;;;;;4985805;28;20220;-61
2022/03/06 07:02:24;;;;;;;24.00;16.60;;;;;;;;;;4983468;28;20233;-61
2022/03/06 07:04:50;;;;;;;21.17;15.80;;;;;;;;;;4984399;28;20240;-61
2022/03/06 07:07:17;;;;;;;22.97;15.17;;;;;;;;;;4977325;28;20235;-61
2022/03/06 07:09:43;;;;;;;19.40;15.10;;;;;;;;;;4973869;28;20404;-61
2022/03/06 07:12:09;;;;;;;22.57;15.53;;;;;;;;;;4983128;28;20201;-61
2022/03/06 07:14:35;;;;;;;20.87;15.00;;;;;;;;;;4988139;28;20738;-61
2022/03/06 07:17:01;;;;;;;22.37;16.10;;;;;;;;;;4979835;28;20204;-63
2022/03/06 07:19:27;;;;;;;19.63;15.27;;;;;;;;;;4973692;28;20210;-61
2022/03/06 07:21:53;;;;;;;22.93;15.27;;;;;;;;;;4983334;28;20207;-63
2022/03/06 07:24:19;;;;;;;20.67;14.87;;;;;;;;;;4986601;28;20323;-62
2022/03/06 07:26:44;;;;;;;20.77;15.03;;;;;;;;;;4990996;28;20251;-61
2022/03/06 07:29:10;;;;;;;20.50;14.37;;;;;;;;;;4986235;28;20306;-61
2022/03/06 07:31:36;;;;;;;21.30;15.20;;;;;;;;;;4992335;28;20276;-61
2022/03/06 07:34:02;;;;;;;19.60;15.03;;;;;;;;;;4989731;28;20200;-62
2022/03/06 07:36:28;;;;;;;20.30;15.00;;;;;;;;;;4988957;28;20216;-61
2022/03/06 07:38:54;;;;;;;21.57;14.87;;;;;;;;;;4990144;28;20907;-61
2022/03/06 07:41:20;;;;;;;20.60;14.57;;;;;;;;;;4978145;28;20221;-61
2022/03/06 07:43:46;;;;;;;21.23;15.00;;;;;;;;;;4983556;28;20189;-61
2022/03/06 07:46:12;;;;;;;21.53;14.97;;;;;;;;;;4976401;28;20225;-61
2022/03/06 07:48:38;;;;;;;19.27;13.67;;;;;;;;;;4981105;28;20762;-62
2022/03/06 07:51:04;;;;;;;23.70;16.40;;;;;;;;;;4981847;28;20208;-62
2022/03/06 07:53:30;;;;;;;21.17;15.07;;;;;;;;;;4979829;28;20193;-61
2022/03/06 07:55:56;;;;;;;21.83;15.20;;;;;;;;;;4987641;28;20283;-62
2022/03/06 07:58:22;;;;;;;20.37;14.83;;;;;;;;;;4974457;28;20312;-62
2022/03/06 08:00:48;;;;;;;20.93;15.17;;;;;;;;;;4976336;28;20189;-62
2022/03/06 08:03:15;;;;;;;22.00;16.10;;;;;;;;;;4984957;28;20231;-62
2022/03/06 08:05:41;;;;;;;21.77;15.30;;;;;;;;;;4989874;28;20231;-62
2022/03/06 08:08:07;;;;;;;22.23;16.30;;;;;;;;;;4979588;28;20192;-62
2022/03/06 08:10:33;;;;;;;21.70;16.17;;;;;;;;;;4983287;28;20205;-62
2022/03/06 08:12:59;;;;;;;23.97;15.77;;;;;;;;;;4990577;28;22517;-62
2022/03/06 08:15:26;;;;;;;22.53;16.60;;;;;;;;;;4979545;28;20317;-62
2022/03/06 08:17:52;;;;;;;20.33;15.17;;;;;;;;;;4982884;28;20657;-63
2022/03/06 08:20:18;;;;;;;20.67;14.73;;;;;;;;;;4983314;28;20284;-62
2022/03/06 08:22:44;;;;;;;22.07;15.73;;;;;;;;;;4986770;28;20325;-62
2022/03/06 08:25:10;;;;;;;22.03;15.50;;;;;;;;;;4987491;28;20260;-62
2022/03/06 08:27:36;;;;;;;23.63;16.03;;;;;;;;;;4991690;28;20196;-62
2022/03/06 08:30:02;;;;;;;21.13;16.27;;;;;;;;;;4989303;28;20202;-62
2022/03/06 08:32:28;;;;;;;21.10;15.87;;;;;;;;;;4987267;28;20193;-62
2022/03/06 08:34:55;;;;;;;22.73;16.03;;;;;;;;;;4989111;28;22422;-62
2022/03/06 08:37:21;;;;;;;22.40;14.63;;;;;;;;;;5003781;28;20653;-63
2022/03/06 08:39:47;;;;;;;18.57;14.50;;;;;;;;;;4999742;28;20190;-62
2022/03/06 08:42:14;;;;;;;22.37;16.13;;;;;;;;;;4986875;28;20198;-62
2022/03/06 08:44:39;;;;;;;21.47;16.40;;;;;;;;;;4991961;28;20215;-62
2022/03/06 08:47:05;;;;;;;22.03;16.30;;;;;;;;;;4987972;28;21217;-62
2022/03/06 08:49:31;;;;;;;22.27;16.10;;;;;;;;;;4983662;28;20205;-62
2022/03/06 08:51:57;;;;;;;20.97;16.13;;;;;;;;;;4983744;28;20193;-62
2022/03/06 08:54:23;;;;;;;22.37;16.47;;;;;;;;;;4991378;28;20279;-62
2022/03/06 08:56:49;;;;;;;21.33;15.60;;;;;;;;;;4988379;28;20217;-63
2022/03/06 08:59:15;;;;;;;20.87;15.63;;;;;;;;;;4990160;28;20319;-62
2022/03/06 09:01:41;;;;;;;22.20;16.27;;;;;;;;;;4980468;28;20221;-62
2022/03/06 09:04:07;;;;;;;20.20;15.63;;;;;;;;;;4977650;28;20659;-62
2022/03/06 09:06:33;;;;;;;20.87;16.20;;;;;;;;;;4980023;28;20266;-63
2022/03/06 09:08:59;;;;;;;20.97;15.87;;;;;;;;;;4979954;28;20251;-62
2022/03/06 09:11:25;;;;;;;20.93;16.80;;;;;;;;;;4982020;28;20193;-61
2022/03/06 09:13:51;;;;;;;18.03;15.23;;;;;;;;;;4989774;28;20205;-62
2022/03/06 09:16:17;;;;;;;24.30;16.50;;;;;;;;;;4981668;28;20459;-61
2022/03/06 09:18:47;;;;;;;21.03;16.73;;;;;;;;;;4980595;28;20201;-63
2022/03/06 09:21:13;;;;;;;22.40;17.57;;;;;;;;;;4992755;28;20196;-61
2022/03/06 09:23:39;;;;;;;24.53;17.03;;;;;;;;;;4986135;28;20646;-62
2022/03/06 09:26:05;;;;;;;22.83;16.77;;;;;;;;;;4985155;28;20382;-62
2022/03/06 09:28:31;;;;;;;22.53;16.67;;;;;;;;;;4987493;28;20196;-62
2022/03/06 09:30:57;;;;;;;22.07;16.77;;;;;;;;;;4985953;28;20200;-62
2022/03/06 09:33:23;;;;;;;22.53;17.00;;;;;;;;;;4985699;28;20258;-62
2022/03/06 09:35:49;;;;;;;24.40;18.60;;;;;;;;;;4985198;28;20204;-62
2022/03/06 09:38:15;;;;;;;23.53;17.83;;;;;;;;;;4984684;28;20204;-62
2022/03/06 09:40:42;;;;;;;22.63;17.60;;;;;;;;;;4984015;28;20220;-62
2022/03/06 09:43:08;;;;;;;20.80;16.90;;;;;;;;;;4979872;28;20643;-62
2022/03/06 09:45:34;;;;;;;23.27;17.37;;;;;;;;;;4980765;28;20221;-62
2022/03/06 09:48:00;;;;;;;22.50;17.63;;;;;;;;;;4988221;28;20189;-62
2022/03/06 09:50:26;;;;;;;23.07;17.37;;;;;;;;;;4987173;28;20845;-62
2022/03/06 09:52:52;;;;;;;25.27;17.87;;;;;;;;;;4986690;28;20280;-62
2022/03/06 09:55:18;;;;;;;22.97;17.00;;;;;;;;;;4987079;28;20276;-62
2022/03/06 09:57:44;;;;;;;22.10;17.47;;;;;;;;;;4991177;28;20636;-63
2022/03/06 10:00:10;;;;;;;19.70;16.67;;;;;;;;;;4987051;28;20263;-63
2022/03/06 10:02:55;;;;;;;21.87;18.50;;;;;;;;;;4972484;28;20200;-63
2022/03/06 10:05:47;;;;;;;20.23;16.80;;;;;;;;;;4986443;28;20679;-63
2022/03/06 10:08:26;;;;;;;21.30;17.17;;;;;;;;;;4985088;28;20210;-63
2022/03/06 10:11:01;;;;;;;22.03;16.83;;;;;;;;;;4983651;28;20227;-64
2022/03/06 10:13:31;;;;;;;21.13;17.17;;;;;;;;;;4986177;28;20200;-64
2022/03/06 10:15:57;;;;;;;20.63;16.17;;;;;;;;;;4978129;28;20200;-61
2022/03/06 10:18:23;;;;;;;22.67;16.20;;;;;;;;;;4991583;28;20201;-64
2022/03/06 10:20:49;;;;;;;18.37;14.33;;;;;;;;;;4971714;28;20212;-65
2022/03/06 10:23:27;;;;;;;20.43;14.80;;;;;;;;;;4981292;28;20197;-64
2022/03/06 10:26:03;;;;;;;17.67;13.53;;;;;;;;;;4968152;28;20803;-65
2022/03/06 10:28:29;;;;;;;21.60;13.83;;;;;;;;;;4970833;28;20189;-63
2022/03/06 10:30:57;;;;;;;20.80;14.77;;;;;;;;;;4982595;28;20200;-62
2022/03/06 10:33:24;;;;;;;18.77;14.20;;;;;;;;;;4962316;28;20264;-63
2022/03/06 10:35:50;;;;;;;18.03;14.67;;;;;;;;;;4971684;28;20462;-63
2022/03/06 10:38:23;;;;;;;19.10;15.20;;;;;;;;;;4983989;28;20189;-62
2022/03/06 10:40:49;;;;;;;19.87;15.23;;;;;;;;;;4977537;28;20197;-63
2022/03/06 10:43:22;;;;;;;20.50;15.93;;;;;;;;;;4978072;28;20528;-62
2022/03/06 10:45:48;;;;;;;16.77;14.97;;;;;;;;;;4972052;28;20218;-62
2022/03/06 10:48:14;;;;;;;17.97;15.17;;;;;;;;;;4977636;28;20200;-62
2022/03/06 10:50:40;;;;;;;18.93;15.43;;;;;;;;;;4982924;28;20216;-62
2022/03/06 10:53:18;;;;;;;17.33;15.43;;;;;;;;;;4978879;28;20193;-62
2022/03/06 10:55:44;;;;;;;18.27;15.67;;;;;;;;;;4981519;28;20199;-62
2022/03/06 10:58:10;;;;;;;18.27;15.97;;;;;;;;;;4979387;28;20785;-63
2022/03/06 11:00:36;;;;;;;17.63;15.73;;;;;;;;;;4982316;28;20201;-62
2022/03/06 11:03:04;;;;;;;17.60;14.50;;;;;;;;;;4978124;28;20599;-65
2022/03/06 11:05:30;;;;;;;20.87;15.33;;;;;;;;;;4980800;28;20213;-64
2022/03/06 11:07:56;;;;;;;18.40;15.90;;;;;;;;;;4984337;28;20299;-64
2022/03/06 11:10:22;;;;;;;19.40;15.70;;;;;;;;;;4988826;28;20679;-64
2022/03/06 11:12:48;;;;;;;17.17;15.30;;;;;;;;;;4997387;28;20773;-63
2022/03/06 11:15:14;;;;;;;16.50;14.70;;;;;;;;;;4998923;28;20272;-64
2022/03/06 11:17:40;;;;;;;16.20;14.50;;;;;;;;;;4987837;28;20197;-63
2022/03/06 11:20:06;;;;;;;15.77;14.13;;;;;;;;;;4984505;28;20192;-62
2022/03/06 11:22:48;;;;;;;16.27;14.67;;;;;;;;;;4980626;28;20197;-64
2022/03/06 11:25:17;;;;;;;15.10;13.50;;;;;;;;;;4990566;28;20229;-65
2022/03/06 11:27:43;;;;;;;14.88;13.38;;;;;;;;;;4987292;28;20682;-64
2022/03/06 11:30:18;;;;;;;14.73;13.32;;;;;;;;;;4981419;28;22395;-64
2022/03/06 11:32:45;;;;;;;14.68;13.18;;;;;;;;;;4987826;28;20657;-65
2022/03/06 11:35:15;;;;;;;14.40;12.90;;;;;;;;;;4972243;28;20248;-64
2022/03/06 11:37:50;;;;;;;15.60;14.00;;;;;;;;;;4983535;28;20589;-64
2022/03/06 11:40:35;;;;;;;14.70;13.10;;;;;;;;;;4983436;28;20755;-65
2022/03/06 11:43:01;;;;;;;14.93;13.38;;;;;;;;;;4976939;28;21169;-64
2022/03/06 11:45:43;;;;;;;14.05;12.57;;;;;;;;;;4983207;28;20211;-64
2022/03/06 11:48:10;;;;;;;15.27;13.70;;;;;;;;;;4986816;28;20194;-65
2022/03/06 11:50:36;;;;;;;14.80;12.65;;;;;;;;;;4984306;28;20193;-65
2022/03/06 11:53:19;;;;;;;13.57;12.27;;;;;;;;;;4961610;28;20986;-64
2022/03/06 11:55:45;;;;;;;13.95;12.52;;;;;;;;;;4983974;28;21975;-64
2022/03/06 11:58:11;;;;;;;15.70;12.38;;;;;;;;;;4982205;28;20275;-64
2022/03/06 12:00:37;;;;;;;14.10;12.65;;;;;;;;;;4966243;28;20200;-64
2022/03/06 12:03:03;;;;;;;13.85;12.38;;;;;;;;;;4976741;28;20314;-61
2022/03/06 12:05:48;;;;;;;15.10;13.43;;;;;;;;;;4974773;28;20259;-67
2022/03/06 12:08:14;;;;;;;15.55;13.88;;;;;;;;;;4980146;28;20895;-66
2022/03/06 12:10:40;;;;;;;16.45;14.15;;;;;;;;;;4984435;28;20258;-65
2022/03/06 12:13:27;;;;;;;23.02;13.88;;;;;;;;;;4984249;28;20496;-63
2022/03/06 12:16:06;;;;;;;18.38;14.02;;;;;;;;;;4984956;28;20193;-61
2022/03/06 12:18:32;;;;;;;22.52;14.50;;;;;;;;;;4981463;28;20712;-64
2022/03/06 12:20:58;;;;;;;20.67;14.02;;;;;;;;;;4983658;28;20212;-63
2022/03/06 12:23:25;;;;;;;15.52;13.63;;;;;;;;;;4984574;28;20207;-63
2022/03/06 12:25:52;;;;;;;15.60;13.65;;;;;;;;;;4976574;28;20520;-61
2022/03/06 12:28:18;;;;;;;14.60;13.05;;;;;;;;;;4985041;28;20213;-58
2022/03/06 12:30:44;;;;;;;14.52;13.05;;;;;;;;;;4985298;28;20288;-58
2022/03/06 12:33:33;;;;;;;15.27;13.13;;;;;;;;;;4986126;28;20298;-57
2022/03/06 12:36:13;;;;;;;13.97;11.53;;;;;;;;;;4971523;28;20268;-64
2022/03/06 12:38:39;;;;;;;12.70;11.40;;;;;;;;;;4973646;28;20201;-62
2022/03/06 12:41:05;;;;;;;11.90;10.70;;;;;;;;;;4983403;28;21295;-64
2022/03/06 12:43:31;;;;;;;12.35;11.13;;;;;;;;;;4974537;28;20201;-64
2022/03/06 12:45:57;;;;;;;12.18;10.80;;;;;;;;;;4981167;28;20216;-61
2022/03/06 12:48:23;;;;;;;11.93;10.60;;;;;;;;;;4988655;28;20186;-62
2022/03/06 12:50:49;;;;;;;12.20;11.00;;;;;;;;;;4983092;28;20189;-63
2022/03/06 12:53:18;;;;;;;13.18;10.40;;;;;;;;;;4981435;28;20497;-64
2022/03/06 12:55:44;;;;;;;13.38;10.05;;;;;;;;;;4985472;28;20225;-63
2022/03/06 12:58:10;;;;;;;11.63;10.20;;;;;;;;;;4989002;28;20294;-63
2022/03/06 13:00:36;;;;;;;10.33;9.30;;;;;;;;;;4988420;28;21395;-63
2022/03/06 13:03:03;;;;;;;10.30;9.30;;;;;;;;;;4983885;28;20224;-64
2022/03/06 13:05:33;;;;;;;10.23;9.25;;;;;;;;;;4974351;28;20259;-64
2022/03/06 13:07:59;;;;;;;10.45;8.70;;;;;;;;;;4983802;28;20208;-64
2022/03/06 13:10:25;;;;;;;8.40;7.55;;;;;;;;;;4974901;28;20887;-63
2022/03/06 13:12:52;;;;;;;8.55;7.75;;;;;;;;;;4973293;28;20733;-63
2022/03/06 13:15:18;;;;;;;10.07;7.57;;;;;;;;;;4979527;28;20647;-63
2022/03/06 13:18:03;;;;;;;10.20;7.72;;;;;;;;;;4986954;28;20355;-63
2022/03/06 13:20:30;;;;;;;9.05;7.68;;;;;;;;;;4996754;28;20225;-63
2022/03/06 13:22:56;;;;;;;8.00;7.20;;;;;;;;;;4996982;28;20749;-62
2022/03/06 13:25:25;;;;;;;17.55;8.27;;;;;;;;;;4990143;28;20250;-62
2022/03/06 13:27:51;;;;;;;7.88;7.07;;;;;;;;;;4989769;28;20673;-61
2022/03/06 13:30:18;;;;;;;8.57;7.78;;;;;;;;;;4994048;28;21022;-61
2022/03/06 13:32:44;;;;;;;8.25;7.45;;;;;;;;;;4998883;28;20219;-62
2022/03/06 13:35:13;;;;;;;9.75;7.75;;;;;;;;;;4993850;28;20196;-62
2022/03/06 13:37:39;;;;;;;8.23;7.53;;;;;;;;;;5001981;28;20263;-61
2022/03/06 13:40:12;;;;;;;9.73;7.75;;;;;;;;;;4999394;28;20200;-62
2022/03/06 13:42:38;;;;;;;8.95;8.13;;;;;;;;;;4992978;28;20318;-61
2022/03/06 13:45:05;;;;;;;8.13;7.32;;;;;;;;;;4991570;28;20196;-61
2022/03/06 13:47:41;;;;;;;8.45;7.65;;;;;;;;;;4985403;28;20718;-61
2022/03/06 13:50:08;;;;;;;9.07;7.00;;;;;;;;;;4989299;28;20765;-62
2022/03/06 13:52:34;;;;;;;7.38;6.68;;;;;;;;;;4991529;28;20181;-62
2022/03/06 13:55:07;;;;;;;8.30;7.53;;;;;;;;;;4991115;28;20230;-62
2022/03/06 13:57:33;;;;;;;8.48;7.00;;;;;;;;;;4980886;28;20651;-60
2022/03/06 14:00:19;;;;;;;9.77;7.10;;;;;;;;;;4983592;28;20224;-62
2022/03/06 14:02:45;;;;;;;9.53;7.70;;;;;;;;;;4980527;28;20199;-60
2022/03/06 14:05:11;;;;;;;10.80;7.53;;;;;;;;;;4980412;28;20968;-61
2022/03/06 14:07:37;;;;;;;14.83;8.30;;;;;;;;;;4973329;28;21891;-58
2022/03/06 14:10:03;;;;;;;10.90;8.00;;;;;;;;;;4977360;28;20200;-60
2022/03/06 14:12:34;;;;;;;13.60;7.77;;;;;;;;;;4981645;28;20193;-58
2022/03/06 14:15:00;;;;;;;9.70;8.30;;;;;;;;;;4974975;28;20196;-59
2022/03/06 14:17:26;;;;;;;15.17;8.60;;;;;;;;;;4992557;28;23329;-58